Bellevue, NE

11:20 AM CDT on April 28, 2017 (GMT -0500)
| | Change Station

Elev -9999 ft 0.00 °N, 0.00 °E | Updated

Heavy Rain
Heavy Rain Mist
°F
Feels Like °F
N
Wind Variable Wind from North
Gusts mph

Today
High -- | Low -- °F
--% Chance of Precip.
Yesterday
High -- | Low -- °F
Precip. -- in
Pressure 29.83 in
Visibility 2.8 miles
Clouds Few 100 ft
Scattered Clouds 800 ft
Mostly Cloudy 1100 ft
Mostly Cloudy 2300 ft
Overcast 3100 ft
Dew Point Not available.
Humidity Not available.
Rainfall --
Snow Depth Not available.
6:24 AM 8:17 PM
Waxing Crescent, 7% visible
SPECI KOFF 281616Z AUTO 04014G18KT 2 3/4SM +RA BR FEW001 SCT008 BKN011 BKN023 OVC031 04/02 A2980 RMK AO2 VIS 2 3/4V5 CIG 011V023 BKN011 V SCT SLP100 $
Pressure 29.83 in
Visibility 2.8 miles
Clouds Few 100 ft
Scattered Clouds 800 ft
Mostly Cloudy 1100 ft
Mostly Cloudy 2300 ft
Overcast 3100 ft
Dew Point Not available.
Humidity Not available.
Rainfall --
Snow Depth Not available.
6:24 AM 8:17 PM
Waxing Crescent, 7% visible
SPECI KOFF 281616Z AUTO 04014G18KT 2 3/4SM +RA BR FEW001 SCT008 BKN011 BKN023 OVC031 04/02 A2980 RMK AO2 VIS 2 3/4V5 CIG 011V023 BKN011 V SCT SLP100 $

Get Severe Weather Alerts

Thanks for signing up!

Be on the lookout for a verification email in your inbox.

You'll start receiving the daily forecast at 8 AM.

×

10-Day Weather Forecast

Almanac

Astronomy

Apr. 28, 2017 Rise Set
Actual Time
Civil Twilight
Nautical Twilight
Astronomical Twilight
Moon
Length of Visible Light
Length of Day
Tomorrow will be .
, % of the Moon is Illuminated

Today's Extremes

State Highs State Lows

Community

WunderPhotos

WunderBlog® & News

Nearby

Air Quality

  Air Quality AQ Index Pollutant
Not available.

Snow Depth

Station Depth Elevation

Earthquake Activity

City Distance Mag. Time & Date
Minimum magnitude displayed is 2.5.

Coastal Water Temperatures

Place Temperature

Stations

Nearby Weather Stations

Station Location Temp. Windchill Dew Point Humidity Wind Precip. Elev Updated Type
                   

Watches & Warnings

There are currently no watches in effect.